EKCHEDDT

Guest
Details From EKCH - Kastrup
To EDDT - Berlin Tegel
Flight Number -
Tags generated
Created
Modified
Stats Distance 185 nm / 344 km
Max Altitude 24,100 ft / 7,346 m
Waypoints 4
Social Downloads 4
Likes 0
Share VATSIM

Download

Looking for another format? Having issues loading an existing format? Contact us
Advertisement - Login to hide

Notes

Basic altitude profile: - Ascent Rate: 2900ft/min - Ascent Speed: 235kts - Cruise Altitude: 31000ft - Cruise Speed: 260kts - Descent Rate: 1600ft/min - Descent Speed: 240kts Options: - Use NATs: yes - Use PACOTS: yes - Use low airways: no - Use high airways: yes

Route

EKCH OKAGA Z22 KOMOX EDDT

ID Type Via Altitude Latitude Longitude Leg Dist Tot Dist Heading (true) Name
O EKCH APT - 0 ft / 0 m 55.61291˚ 12.64096˚ - 0 nm - Kastrup
OKAGA FIX - 24,100 ft / 7,346 m 54.50000˚ 12.95833˚ 67 nm 67 nm 171° / 171° -
KOMOX FIX Z22 (AWY-HI) 12,900 ft / 3,932 m 53.54167˚ 12.95833˚ 57 nm 125 nm 180° / 180° -
O EDDT APT - 0 ft / 0 m 52.55910˚ 13.29019˚ 60 nm 185 nm 168° / 169° Berlin Tegel

Altitude Profile

Advertisement - Login to hide

Weather


0- 5 10 15 20 25 30 35+ Temperature / ° C

Clouds and Precipitation
Forecast for 2018-07-23 06:00 UTC. Updated 4 hours ago

Ground ~20,000 ft ~40,000 ft Winds

EKCH

Details ICAO EKCH (CPH)
Name Kastrup
Region Denmark / Faroe Islands
Timezone Europe/Copenhagen (UTC+2.0)
Stats Elevation 17 ft / 5 m (AMSL)
Location 55.612915° 12.640961°
Runways 3
Magnetic Variation 3.813° E

METAR

Not found

TAF

TAF EKCH 222254Z 2300/2324 30005KT 9999 SCT030= TAF EKBI 222254Z 2300/2324 28008KT 9999 BKN015 TEMPO 2300/2306 4000 BR BKN008

Decode

Departure Runways

ID Width Length Bearing (true) Bearing (mag) Surface Threshold Offset Overrun Length
04L 148 ft / 45 m 11,848 ft / 3,611 m 41.15° 37.34° Asphalt 0 ft / 0 m 0 ft / 0 m
04R 148 ft / 45 m 10,814 ft / 3,296 m 41.15° 37.34° Asphalt 0 ft / 0 m 0 ft / 0 m
12 148 ft / 45 m 10,047 ft / 3,063 m 123.21° 119.40° Asphalt 2,313 ft / 705 m 0 ft / 0 m
22L 148 ft / 45 m 10,814 ft / 3,296 m 221.17° 217.36° Asphalt 0 ft / 0 m 0 ft / 0 m
22R 148 ft / 45 m 11,848 ft / 3,611 m 221.18° 217.37° Asphalt 2,018 ft / 615 m 0 ft / 0 m
30 148 ft / 45 m 10,047 ft / 3,063 m 303.25° 299.44° Asphalt 886 ft / 270 m 0 ft / 0 m

EDDT

Details ICAO EDDT (TXL)
Name Berlin Tegel
Region Germany - Civil
Timezone Europe/Berlin (UTC+2.0)
Stats Elevation 122 ft / 37 m (AMSL)
Location 52.559100° 13.290188°
Runways 2
Magnetic Variation 3.833° E

METAR

EDDT 230720Z 28007KT 250V350 CAVOK 21/15 Q1015 NOSIG

Decode

TAF

TAF EDDT 230500Z 2306/2406 30007KT CAVOK BECMG 2316/2319 VRB03KT

Decode

Destination Runways

ID Width Length Bearing (true) Bearing (mag) Surface Threshold Offset Overrun Length
08L 151 ft / 46 m 9,885 ft / 3,013 m 80.83° 77.00° Asphalt 0 ft / 0 m 226 ft / 69 m
08R 151 ft / 46 m 7,923 ft / 2,415 m 80.84° 77.01° Asphalt 341 ft / 104 m 207 ft / 63 m
26L 151 ft / 46 m 7,923 ft / 2,415 m 260.87° 257.04° Asphalt 722 ft / 220 m 157 ft / 48 m
26R 151 ft / 46 m 9,885 ft / 3,013 m 260.86° 257.03° Asphalt 0 ft / 0 m 223 ft / 68 m

Approach Navaids

Runway Type Ident Frequency Range Bearing (true) Bearing (mag) Slope Elevation
08L Localiser ITLE 109.10 MHz 18 nm / 33 km 80.85° 77.02° - 111 ft / 34 m (AMSL)
08L Glidescope ITLE 109.10 MHz 10 nm / 19 km 80.84° 77.01° 3.00° 111 ft / 34 m (AMSL)
08R Localiser ITGE 108.50 MHz 18 nm / 33 km 80.87° 77.03° - 109 ft / 33 m (AMSL)
08R Glidescope ITGE 108.50 MHz 10 nm / 19 km 80.86° 77.02° 3.00° 109 ft / 33 m (AMSL)
26L Localiser ITGW 109.30 MHz 18 nm / 33 km 260.83° 257.00° - 121 ft / 37 m (AMSL)
26L Glidescope ITGW 109.30 MHz 10 nm / 19 km 260.86° 257.02° 3.00° 121 ft / 37 m (AMSL)
26R Localiser ITLW 110.10 MHz 18 nm / 33 km 260.83° 257.00° - 118 ft / 36 m (AMSL)
26R Glidescope ITLW 110.10 MHz 10 nm / 19 km 260.85° 257.01° 3.00° 118 ft / 36 m (AMSL)

Popular Alternatives